sensor_id;sensor_type;location;lat;lon;timestamp;P1;durP1;ratioP1;P2;durP2;ratioP2
73474;SDS011;61711;52.266;10.542;2023-05-18T00:00:04;12.98;;;5.57;;
73474;SDS011;61711;52.266;10.542;2023-05-18T00:02:35;13.27;;;5.22;;
73474;SDS011;61711;52.266;10.542;2023-05-18T00:05:01;11.32;;;6.32;;
73474;SDS011;61711;52.266;10.542;2023-05-18T00:07:28;13.48;;;6.22;;
73474;SDS011;61711;52.266;10.542;2023-05-18T00:09:57;11.18;;;5.15;;
73474;SDS011;61711;52.266;10.542;2023-05-18T00:12:23;13.10;;;5.50;;
73474;SDS011;61711;52.266;10.542;2023-05-18T00:14:49;10.35;;;5.10;;
73474;SDS011;61711;52.266;10.542;2023-05-18T00:17:15;13.52;;;5.07;;
73474;SDS011;61711;52.266;10.542;2023-05-18T00:19:41;12.93;;;5.43;;
73474;SDS011;61711;52.266;10.542;2023-05-18T00:22:10;10.60;;;4.63;;
73474;SDS011;61711;52.266;10.542;2023-05-18T00:24:46;8.43;;;3.90;;
73474;SDS011;61711;52.266;10.542;2023-05-18T00:27:12;10.40;;;3.83;;
73474;SDS011;61711;52.266;10.542;2023-05-18T00:29:38;11.45;;;4.38;;
73474;SDS011;61711;52.266;10.542;2023-05-18T00:32:04;12.00;;;4.28;;
73474;SDS011;61711;52.266;10.542;2023-05-18T00:34:30;10.32;;;4.35;;
73474;SDS011;61711;52.266;10.542;2023-05-18T00:36:56;9.23;;;4.07;;
73474;SDS011;61711;52.266;10.542;2023-05-18T00:39:22;12.80;;;4.50;;
73474;SDS011;61711;52.266;10.542;2023-05-18T00:41:48;9.57;;;3.95;;
73474;SDS011;61711;52.266;10.542;2023-05-18T00:44:14;12.98;;;4.22;;
73474;SDS011;61711;52.266;10.542;2023-05-18T00:46:40;10.13;;;4.00;;
73474;SDS011;61711;52.266;10.542;2023-05-18T00:49:08;9.32;;;4.00;;
73474;SDS011;61711;52.266;10.542;2023-05-18T00:51:34;10.32;;;3.72;;
73474;SDS011;61711;52.266;10.542;2023-05-18T00:54:00;7.93;;;4.00;;
73474;SDS011;61711;52.266;10.542;2023-05-18T00:56:28;10.02;;;4.40;;
73474;SDS011;61711;52.266;10.542;2023-05-18T00:58:58;9.15;;;4.18;;
73474;SDS011;61711;52.266;10.542;2023-05-18T01:01:26;10.98;;;4.13;;
73474;SDS011;61711;52.266;10.542;2023-05-18T01:03:53;8.85;;;4.10;;
73474;SDS011;61711;52.266;10.542;2023-05-18T01:06:20;7.93;;;4.45;;
73474;SDS011;61711;52.266;10.542;2023-05-18T01:08:49;11.93;;;4.10;;
73474;SDS011;61711;52.266;10.542;2023-05-18T01:13:53;8.45;;;3.72;;
73474;SDS011;61711;52.266;10.542;2023-05-18T01:16:22;5.47;;;3.13;;
73474;SDS011;61711;52.266;10.542;2023-05-18T01:18:55;10.27;;;3.83;;
73474;SDS011;61711;52.266;10.542;2023-05-18T01:21:36;11.02;;;3.83;;
73474;SDS011;61711;52.266;10.542;2023-05-18T01:24:15;10.88;;;3.47;;
73474;SDS011;61711;52.266;10.542;2023-05-18T01:26:45;11.68;;;4.00;;
73474;SDS011;61711;52.266;10.542;2023-05-18T01:29:14;10.57;;;3.88;;
73474;SDS011;61711;52.266;10.542;2023-05-18T01:31:42;8.25;;;3.65;;
73474;SDS011;61711;52.266;10.542;2023-05-18T01:34:08;9.85;;;3.58;;
73474;SDS011;61711;52.266;10.542;2023-05-18T01:36:34;14.20;;;3.55;;
73474;SDS011;61711;52.266;10.542;2023-05-18T01:39:00;9.65;;;3.63;;
73474;SDS011;61711;52.266;10.542;2023-05-18T01:41:27;10.18;;;3.78;;
73474;SDS011;61711;52.266;10.542;2023-05-18T01:46:31;8.73;;;3.50;;
73474;SDS011;61711;52.266;10.542;2023-05-18T01:49:01;6.85;;;3.38;;
73474;SDS011;61711;52.266;10.542;2023-05-18T01:51:31;9.48;;;4.05;;
73474;SDS011;61711;52.266;10.542;2023-05-18T01:54:02;10.40;;;4.07;;
73474;SDS011;61711;52.266;10.542;2023-05-18T01:56:29;9.65;;;3.97;;
73474;SDS011;61711;52.266;10.542;2023-05-18T01:58:56;9.18;;;4.43;;
73474;SDS011;61711;52.266;10.542;2023-05-18T02:01:23;9.77;;;4.07;;
73474;SDS011;61711;52.266;10.542;2023-05-18T02:03:49;10.18;;;4.05;;
73474;SDS011;61711;52.266;10.542;2023-05-18T02:06:15;12.80;;;3.90;;
73474;SDS011;61711;52.266;10.542;2023-05-18T02:08:41;10.68;;;3.72;;
73474;SDS011;61711;52.266;10.542;2023-05-18T02:11:07;10.32;;;4.30;;
73474;SDS011;61711;52.266;10.542;2023-05-18T02:13:33;10.30;;;4.13;;
73474;SDS011;61711;52.266;10.542;2023-05-18T02:16:00;9.40;;;3.88;;
73474;SDS011;61711;52.266;10.542;2023-05-18T02:18:28;8.05;;;4.10;;
73474;SDS011;61711;52.266;10.542;2023-05-18T02:20:57;10.35;;;4.18;;
73474;SDS011;61711;52.266;10.542;2023-05-18T02:23:23;8.82;;;3.83;;
73474;SDS011;61711;52.266;10.542;2023-05-18T02:25:50;11.45;;;4.00;;
73474;SDS011;61711;52.266;10.542;2023-05-18T02:28:19;12.23;;;3.80;;
73474;SDS011;61711;52.266;10.542;2023-05-18T02:30:46;7.80;;;3.75;;
73474;SDS011;61711;52.266;10.542;2023-05-18T02:33:12;6.15;;;3.47;;
73474;SDS011;61711;52.266;10.542;2023-05-18T02:35:38;12.93;;;4.70;;
73474;SDS011;61711;52.266;10.542;2023-05-18T02:38:05;8.70;;;3.88;;
73474;SDS011;61711;52.266;10.542;2023-05-18T02:40:31;8.68;;;4.40;;
73474;SDS011;61711;52.266;10.542;2023-05-18T02:42:57;10.30;;;4.15;;
73474;SDS011;61711;52.266;10.542;2023-05-18T02:45:23;9.38;;;4.60;;
73474;SDS011;61711;52.266;10.542;2023-05-18T02:47:49;12.02;;;4.43;;
73474;SDS011;61711;52.266;10.542;2023-05-18T02:50:15;9.38;;;3.67;;
73474;SDS011;61711;52.266;10.542;2023-05-18T02:52:41;9.63;;;3.78;;
73474;SDS011;61711;52.266;10.542;2023-05-18T02:55:09;10.35;;;3.80;;
73474;SDS011;61711;52.266;10.542;2023-05-18T02:57:37;8.27;;;3.55;;
73474;SDS011;61711;52.266;10.542;2023-05-18T03:00:03;7.97;;;3.88;;
73474;SDS011;61711;52.266;10.542;2023-05-18T03:02:35;8.63;;;4.13;;
73474;SDS011;61711;52.266;10.542;2023-05-18T03:05:02;7.25;;;3.67;;
73474;SDS011;61711;52.266;10.542;2023-05-18T03:07:29;8.57;;;4.18;;
73474;SDS011;61711;52.266;10.542;2023-05-18T03:09:57;9.45;;;3.97;;
73474;SDS011;61711;52.266;10.542;2023-05-18T03:12:23;9.40;;;4.07;;
73474;SDS011;61711;52.266;10.542;2023-05-18T03:14:49;8.82;;;4.00;;
73474;SDS011;61711;52.266;10.542;2023-05-18T03:17:15;11.68;;;4.68;;
73474;SDS011;61711;52.266;10.542;2023-05-18T03:19:41;11.18;;;4.07;;
73474;SDS011;61711;52.266;10.542;2023-05-18T03:22:07;9.60;;;4.05;;
73474;SDS011;61711;52.266;10.542;2023-05-18T03:24:33;10.13;;;4.53;;
73474;SDS011;61711;52.266;10.542;2023-05-18T03:27:04;8.57;;;4.00;;
73474;SDS011;61711;52.266;10.542;2023-05-18T03:29:30;6.60;;;4.10;;
73474;SDS011;61711;52.266;10.542;2023-05-18T03:31:57;8.05;;;3.55;;
73474;SDS011;61711;52.266;10.542;2023-05-18T03:34:23;9.10;;;3.63;;
73474;SDS011;61711;52.266;10.542;2023-05-18T03:36:49;6.55;;;4.03;;
73474;SDS011;61711;52.266;10.542;2023-05-18T03:39:16;9.07;;;4.07;;
73474;SDS011;61711;52.266;10.542;2023-05-18T03:41:42;6.75;;;3.58;;
73474;SDS011;61711;52.266;10.542;2023-05-18T03:44:08;9.68;;;4.38;;
73474;SDS011;61711;52.266;10.542;2023-05-18T03:46:34;9.20;;;4.00;;
73474;SDS011;61711;52.266;10.542;2023-05-18T03:49:01;8.73;;;4.07;;
73474;SDS011;61711;52.266;10.542;2023-05-18T03:51:28;11.13;;;4.70;;
73474;SDS011;61711;52.266;10.542;2023-05-18T03:53:55;11.07;;;4.30;;
73474;SDS011;61711;52.266;10.542;2023-05-18T03:56:21;11.32;;;4.63;;
73474;SDS011;61711;52.266;10.542;2023-05-18T03:58:47;8.85;;;3.95;;
73474;SDS011;61711;52.266;10.542;2023-05-18T04:01:15;10.45;;;4.15;;
73474;SDS011;61711;52.266;10.542;2023-05-18T04:03:43;13.07;;;4.20;;
73474;SDS011;61711;52.266;10.542;2023-05-18T04:06:09;6.45;;;3.95;;
73474;SDS011;61711;52.266;10.542;2023-05-18T04:08:35;9.43;;;4.18;;
73474;SDS011;61711;52.266;10.542;2023-05-18T04:11:01;14.85;;;4.38;;
73474;SDS011;61711;52.266;10.542;2023-05-18T04:13:28;7.15;;;3.75;;
73474;SDS011;61711;52.266;10.542;2023-05-18T04:15:54;13.48;;;4.45;;
73474;SDS011;61711;52.266;10.542;2023-05-18T04:18:22;9.77;;;3.75;;
73474;SDS011;61711;52.266;10.542;2023-05-18T04:20:48;10.65;;;4.10;;
73474;SDS011;61711;52.266;10.542;2023-05-18T04:23:14;9.80;;;4.80;;
73474;SDS011;61711;52.266;10.542;2023-05-18T04:25:40;8.18;;;3.92;;
73474;SDS011;61711;52.266;10.542;2023-05-18T04:28:07;8.13;;;3.85;;
73474;SDS011;61711;52.266;10.542;2023-05-18T04:30:34;11.07;;;5.10;;
73474;SDS011;61711;52.266;10.542;2023-05-18T04:33:01;8.95;;;4.30;;
73474;SDS011;61711;52.266;10.542;2023-05-18T04:35:28;9.68;;;4.80;;
73474;SDS011;61711;52.266;10.542;2023-05-18T04:37:55;11.23;;;4.95;;
73474;SDS011;61711;52.266;10.542;2023-05-18T04:40:22;14.60;;;5.15;;
73474;SDS011;61711;52.266;10.542;2023-05-18T04:42:49;10.50;;;4.43;;
73474;SDS011;61711;52.266;10.542;2023-05-18T04:45:18;10.75;;;4.97;;
73474;SDS011;61711;52.266;10.542;2023-05-18T04:47:46;10.35;;;4.65;;
73474;SDS011;61711;52.266;10.542;2023-05-18T04:50:17;9.05;;;4.55;;
73474;SDS011;61711;52.266;10.542;2023-05-18T04:52:44;10.75;;;4.45;;
73474;SDS011;61711;52.266;10.542;2023-05-18T04:55:13;10.93;;;4.68;;
73474;SDS011;61711;52.266;10.542;2023-05-18T04:57:39;10.45;;;4.15;;
73474;SDS011;61711;52.266;10.542;2023-05-18T05:00:06;7.85;;;4.32;;
73474;SDS011;61711;52.266;10.542;2023-05-18T05:02:33;7.68;;;4.03;;
73474;SDS011;61711;52.266;10.542;2023-05-18T05:05:00;8.82;;;4.35;;
73474;SDS011;61711;52.266;10.542;2023-05-18T05:07:26;8.80;;;4.55;;
73474;SDS011;61711;52.266;10.542;2023-05-18T05:09:52;10.02;;;4.38;;
73474;SDS011;61711;52.266;10.542;2023-05-18T05:12:18;11.25;;;4.47;;
73474;SDS011;61711;52.266;10.542;2023-05-18T05:14:44;8.20;;;4.43;;
73474;SDS011;61711;52.266;10.542;2023-05-18T05:17:09;11.77;;;5.05;;
73474;SDS011;61711;52.266;10.542;2023-05-18T05:19:36;10.55;;;4.60;;
73474;SDS011;61711;52.266;10.542;2023-05-18T05:22:02;7.93;;;4.72;;
73474;SDS011;61711;52.266;10.542;2023-05-18T05:24:28;10.35;;;4.57;;
73474;SDS011;61711;52.266;10.542;2023-05-18T05:26:54;8.85;;;4.38;;
73474;SDS011;61711;52.266;10.542;2023-05-18T05:29:20;11.50;;;5.20;;
73474;SDS011;61711;52.266;10.542;2023-05-18T05:31:46;12.80;;;5.05;;
73474;SDS011;61711;52.266;10.542;2023-05-18T05:34:13;8.30;;;4.03;;
73474;SDS011;61711;52.266;10.542;2023-05-18T05:36:39;5.57;;;3.63;;
73474;SDS011;61711;52.266;10.542;2023-05-18T05:39:05;5.97;;;3.65;;
73474;SDS011;61711;52.266;10.542;2023-05-18T05:41:31;10.60;;;4.07;;
73474;SDS011;61711;52.266;10.542;2023-05-18T05:43:57;10.50;;;4.07;;
73474;SDS011;61711;52.266;10.542;2023-05-18T05:46:23;9.48;;;4.00;;
73474;SDS011;61711;52.266;10.542;2023-05-18T05:48:49;11.60;;;4.18;;
73474;SDS011;61711;52.266;10.542;2023-05-18T05:51:15;7.50;;;3.45;;
73474;SDS011;61711;52.266;10.542;2023-05-18T05:53:41;11.27;;;4.38;;
73474;SDS011;61711;52.266;10.542;2023-05-18T05:56:10;9.73;;;4.15;;
73474;SDS011;61711;52.266;10.542;2023-05-18T05:58:36;13.18;;;4.50;;
73474;SDS011;61711;52.266;10.542;2023-05-18T06:01:02;8.13;;;3.97;;
73474;SDS011;61711;52.266;10.542;2023-05-18T06:03:28;6.65;;;3.83;;
73474;SDS011;61711;52.266;10.542;2023-05-18T06:05:55;9.15;;;3.83;;
73474;SDS011;61711;52.266;10.542;2023-05-18T06:08:21;9.60;;;3.78;;
73474;SDS011;61711;52.266;10.542;2023-05-18T06:10:48;8.65;;;4.35;;
73474;SDS011;61711;52.266;10.542;2023-05-18T06:13:15;10.65;;;4.45;;
73474;SDS011;61711;52.266;10.542;2023-05-18T06:15:41;13.57;;;4.25;;
73474;SDS011;61711;52.266;10.542;2023-05-18T06:18:07;9.50;;;3.92;;
73474;SDS011;61711;52.266;10.542;2023-05-18T06:20:33;7.32;;;3.67;;
73474;SDS011;61711;52.266;10.542;2023-05-18T06:22:59;9.25;;;3.70;;
73474;SDS011;61711;52.266;10.542;2023-05-18T06:25:25;11.02;;;4.22;;
73474;SDS011;61711;52.266;10.542;2023-05-18T06:27:51;10.65;;;4.00;;
73474;SDS011;61711;52.266;10.542;2023-05-18T06:30:17;6.60;;;3.38;;
73474;SDS011;61711;52.266;10.542;2023-05-18T06:32:43;10.10;;;3.55;;
73474;SDS011;61711;52.266;10.542;2023-05-18T06:35:09;9.00;;;3.58;;
73474;SDS011;61711;52.266;10.542;2023-05-18T06:37:36;10.52;;;3.20;;
73474;SDS011;61711;52.266;10.542;2023-05-18T06:40:03;10.15;;;3.30;;
73474;SDS011;61711;52.266;10.542;2023-05-18T06:42:31;4.68;;;2.90;;
73474;SDS011;61711;52.266;10.542;2023-05-18T06:44:57;10.63;;;3.53;;
73474;SDS011;61711;52.266;10.542;2023-05-18T06:47:23;8.90;;;3.30;;
73474;SDS011;61711;52.266;10.542;2023-05-18T06:49:49;9.63;;;3.15;;
73474;SDS011;61711;52.266;10.542;2023-05-18T06:52:15;9.15;;;3.05;;
73474;SDS011;61711;52.266;10.542;2023-05-18T06:54:41;9.40;;;3.50;;
73474;SDS011;61711;52.266;10.542;2023-05-18T06:57:07;6.82;;;3.10;;
73474;SDS011;61711;52.266;10.542;2023-05-18T06:59:33;11.02;;;3.20;;
73474;SDS011;61711;52.266;10.542;2023-05-18T07:01:59;6.80;;;2.78;;
73474;SDS011;61711;52.266;10.542;2023-05-18T07:04:25;8.80;;;2.65;;
73474;SDS011;61711;52.266;10.542;2023-05-18T07:06:51;5.72;;;2.90;;
73474;SDS011;61711;52.266;10.542;2023-05-18T07:09:19;8.40;;;3.00;;
73474;SDS011;61711;52.266;10.542;2023-05-18T07:11:46;8.50;;;2.72;;
73474;SDS011;61711;52.266;10.542;2023-05-18T07:14:12;8.82;;;2.58;;
73474;SDS011;61711;52.266;10.542;2023-05-18T07:16:38;7.10;;;2.60;;
73474;SDS011;61711;52.266;10.542;2023-05-18T07:19:05;5.55;;;2.47;;
73474;SDS011;61711;52.266;10.542;2023-05-18T07:21:31;6.38;;;2.80;;
73474;SDS011;61711;52.266;10.542;2023-05-18T07:23:57;10.30;;;2.55;;
73474;SDS011;61711;52.266;10.542;2023-05-18T07:26:23;11.40;;;2.72;;
73474;SDS011;61711;52.266;10.542;2023-05-18T07:28:49;7.45;;;2.97;;
73474;SDS011;61711;52.266;10.542;2023-05-18T07:31:15;6.32;;;2.67;;
73474;SDS011;61711;52.266;10.542;2023-05-18T07:33:45;9.48;;;3.25;;
73474;SDS011;61711;52.266;10.542;2023-05-18T07:36:12;6.57;;;2.58;;
73474;SDS011;61711;52.266;10.542;2023-05-18T07:38:38;8.57;;;2.70;;
73474;SDS011;61711;52.266;10.542;2023-05-18T07:41:04;7.13;;;2.42;;
73474;SDS011;61711;52.266;10.542;2023-05-18T07:43:30;7.63;;;2.85;;
73474;SDS011;61711;52.266;10.542;2023-05-18T07:45:56;5.38;;;2.38;;
73474;SDS011;61711;52.266;10.542;2023-05-18T07:48:22;10.30;;;3.13;;
73474;SDS011;61711;52.266;10.542;2023-05-18T07:50:48;5.82;;;2.70;;
73474;SDS011;61711;52.266;10.542;2023-05-18T07:53:14;10.32;;;2.42;;
73474;SDS011;61711;52.266;10.542;2023-05-18T07:55:40;12.00;;;2.90;;
73474;SDS011;61711;52.266;10.542;2023-05-18T07:58:06;5.60;;;1.92;;
73474;SDS011;61711;52.266;10.542;2023-05-18T08:00:33;7.65;;;2.13;;
73474;SDS011;61711;52.266;10.542;2023-05-18T08:02:59;7.38;;;2.40;;
73474;SDS011;61711;52.266;10.542;2023-05-18T08:05:25;6.32;;;2.35;;
73474;SDS011;61711;52.266;10.542;2023-05-18T08:07:51;5.82;;;2.22;;
73474;SDS011;61711;52.266;10.542;2023-05-18T08:10:17;9.48;;;2.80;;
73474;SDS011;61711;52.266;10.542;2023-05-18T08:12:43;6.60;;;2.22;;
73474;SDS011;61711;52.266;10.542;2023-05-18T08:15:09;6.78;;;2.70;;
73474;SDS011;61711;52.266;10.542;2023-05-18T08:17:35;6.68;;;2.17;;
73474;SDS011;61711;52.266;10.542;2023-05-18T08:20:01;6.63;;;2.13;;
73474;SDS011;61711;52.266;10.542;2023-05-18T08:22:29;6.85;;;2.20;;
73474;SDS011;61711;52.266;10.542;2023-05-18T08:24:55;7.15;;;2.35;;
73474;SDS011;61711;52.266;10.542;2023-05-18T08:27:24;8.80;;;2.60;;
73474;SDS011;61711;52.266;10.542;2023-05-18T08:29:50;5.80;;;2.55;;
73474;SDS011;61711;52.266;10.542;2023-05-18T08:32:17;9.82;;;2.53;;
73474;SDS011;61711;52.266;10.542;2023-05-18T08:34:43;9.43;;;2.75;;
73474;SDS011;61711;52.266;10.542;2023-05-18T08:37:09;6.25;;;2.42;;
73474;SDS011;61711;52.266;10.542;2023-05-18T08:39:35;7.38;;;2.22;;
73474;SDS011;61711;52.266;10.542;2023-05-18T08:42:04;4.90;;;2.10;;
73474;SDS011;61711;52.266;10.542;2023-05-18T08:44:45;5.05;;;2.00;;
73474;SDS011;61711;52.266;10.542;2023-05-18T08:47:13;9.60;;;2.50;;
73474;SDS011;61711;52.266;10.542;2023-05-18T08:49:40;5.82;;;2.10;;
73474;SDS011;61711;52.266;10.542;2023-05-18T08:52:07;6.47;;;2.50;;
73474;SDS011;61711;52.266;10.542;2023-05-18T08:54:34;6.88;;;2.25;;
73474;SDS011;61711;52.266;10.542;2023-05-18T08:57:00;10.13;;;2.30;;
73474;SDS011;61711;52.266;10.542;2023-05-18T08:59:29;7.30;;;2.30;;
73474;SDS011;61711;52.266;10.542;2023-05-18T09:01:55;5.75;;;2.50;;
73474;SDS011;61711;52.266;10.542;2023-05-18T09:04:21;8.40;;;2.40;;
73474;SDS011;61711;52.266;10.542;2023-05-18T09:06:48;5.18;;;2.15;;
73474;SDS011;61711;52.266;10.542;2023-05-18T09:09:15;9.30;;;2.53;;
73474;SDS011;61711;52.266;10.542;2023-05-18T09:11:42;8.30;;;2.30;;
73474;SDS011;61711;52.266;10.542;2023-05-18T09:14:09;7.32;;;2.42;;
73474;SDS011;61711;52.266;10.542;2023-05-18T09:16:35;6.82;;;2.40;;
73474;SDS011;61711;52.266;10.542;2023-05-18T09:19:01;6.85;;;2.20;;
73474;SDS011;61711;52.266;10.542;2023-05-18T09:21:29;9.98;;;2.30;;
73474;SDS011;61711;52.266;10.542;2023-05-18T09:23:55;5.45;;;2.30;;
73474;SDS011;61711;52.266;10.542;2023-05-18T09:26:21;7.45;;;2.47;;
73474;SDS011;61711;52.266;10.542;2023-05-18T09:28:50;8.93;;;2.78;;
73474;SDS011;61711;52.266;10.542;2023-05-18T09:31:17;6.57;;;2.58;;
73474;SDS011;61711;52.266;10.542;2023-05-18T09:33:44;10.20;;;2.70;;
73474;SDS011;61711;52.266;10.542;2023-05-18T09:36:10;7.38;;;2.50;;
73474;SDS011;61711;52.266;10.542;2023-05-18T09:38:37;8.00;;;2.33;;
73474;SDS011;61711;52.266;10.542;2023-05-18T09:41:05;9.88;;;2.30;;
73474;SDS011;61711;52.266;10.542;2023-05-18T09:43:34;5.88;;;2.17;;
73474;SDS011;61711;52.266;10.542;2023-05-18T09:46:00;6.43;;;2.05;;
73474;SDS011;61711;52.266;10.542;2023-05-18T09:48:30;6.30;;;2.30;;
73474;SDS011;61711;52.266;10.542;2023-05-18T09:50:57;8.13;;;2.53;;
73474;SDS011;61711;52.266;10.542;2023-05-18T09:53:23;8.98;;;2.63;;
73474;SDS011;61711;52.266;10.542;2023-05-18T09:55:50;7.75;;;2.95;;
73474;SDS011;61711;52.266;10.542;2023-05-18T09:58:16;6.13;;;2.50;;
73474;SDS011;61711;52.266;10.542;2023-05-18T10:00:43;6.68;;;2.65;;
73474;SDS011;61711;52.266;10.542;2023-05-18T10:03:20;7.70;;;2.30;;
73474;SDS011;61711;52.266;10.542;2023-05-18T10:05:47;7.55;;;2.67;;
73474;SDS011;61711;52.266;10.542;2023-05-18T10:08:13;6.18;;;2.28;;
73474;SDS011;61711;52.266;10.542;2023-05-18T10:10:44;6.93;;;3.50;;
73474;SDS011;61711;52.266;10.542;2023-05-18T10:13:14;9.00;;;2.80;;
73474;SDS011;61711;52.266;10.542;2023-05-18T10:15:47;6.47;;;2.37;;
73474;SDS011;61711;52.266;10.542;2023-05-18T10:18:14;8.70;;;2.10;;
73474;SDS011;61711;52.266;10.542;2023-05-18T10:20:42;10.02;;;2.20;;
73474;SDS011;61711;52.266;10.542;2023-05-18T10:23:09;5.65;;;2.67;;
73474;SDS011;61711;52.266;10.542;2023-05-18T10:25:36;11.40;;;3.40;;
73474;SDS011;61711;52.266;10.542;2023-05-18T10:28:04;5.45;;;2.20;;
73474;SDS011;61711;52.266;10.542;2023-05-18T10:30:31;7.90;;;2.53;;
73474;SDS011;61711;52.266;10.542;2023-05-18T10:32:57;4.93;;;2.30;;
73474;SDS011;61711;52.266;10.542;2023-05-18T10:35:24;5.72;;;2.17;;
73474;SDS011;61711;52.266;10.542;2023-05-18T10:37:52;9.40;;;2.40;;
73474;SDS011;61711;52.266;10.542;2023-05-18T10:40:20;6.75;;;2.17;;
73474;SDS011;61711;52.266;10.542;2023-05-18T10:42:46;8.32;;;3.20;;
73474;SDS011;61711;52.266;10.542;2023-05-18T10:45:13;9.63;;;2.58;;
73474;SDS011;61711;52.266;10.542;2023-05-18T10:47:40;5.18;;;2.30;;
73474;SDS011;61711;52.266;10.542;2023-05-18T10:50:08;6.53;;;2.55;;
73474;SDS011;61711;52.266;10.542;2023-05-18T10:52:35;9.02;;;2.53;;
73474;SDS011;61711;52.266;10.542;2023-05-18T10:55:01;4.60;;;2.47;;
73474;SDS011;61711;52.266;10.542;2023-05-18T10:57:38;6.18;;;2.47;;
73474;SDS011;61711;52.266;10.542;2023-05-18T11:00:05;6.85;;;2.22;;
73474;SDS011;61711;52.266;10.542;2023-05-18T11:02:33;5.72;;;2.53;;
73474;SDS011;61711;52.266;10.542;2023-05-18T11:05:00;7.95;;;2.28;;
73474;SDS011;61711;52.266;10.542;2023-05-18T11:07:29;10.00;;;2.42;;
73474;SDS011;61711;52.266;10.542;2023-05-18T11:09:58;6.43;;;2.38;;
73474;SDS011;61711;52.266;10.542;2023-05-18T11:12:25;8.45;;;2.70;;
73474;SDS011;61711;52.266;10.542;2023-05-18T11:14:52;6.75;;;2.65;;
73474;SDS011;61711;52.266;10.542;2023-05-18T11:17:19;6.93;;;2.72;;
73474;SDS011;61711;52.266;10.542;2023-05-18T11:23:00;6.95;;;2.20;;
73474;SDS011;61711;52.266;10.542;2023-05-18T11:27:53;6.97;;;2.35;;
73474;SDS011;61711;52.266;10.542;2023-05-18T11:30:28;6.05;;;2.63;;
73474;SDS011;61711;52.266;10.542;2023-05-18T11:35:33;5.47;;;2.60;;
73474;SDS011;61711;52.266;10.542;2023-05-18T11:38:07;5.43;;;2.17;;
73474;SDS011;61711;52.266;10.542;2023-05-18T11:40:49;9.25;;;2.60;;
73474;SDS011;61711;52.266;10.542;2023-05-18T11:43:21;5.28;;;2.03;;
73474;SDS011;61711;52.266;10.542;2023-05-18T11:45:58;10.30;;;3.75;;
73474;SDS011;61711;52.266;10.542;2023-05-18T11:48:26;5.30;;;2.40;;
73474;SDS011;61711;52.266;10.542;2023-05-18T11:50:54;6.93;;;2.47;;
73474;SDS011;61711;52.266;10.542;2023-05-18T11:53:21;8.07;;;2.80;;
73474;SDS011;61711;52.266;10.542;2023-05-18T11:55:50;5.85;;;2.78;;
73474;SDS011;61711;52.266;10.542;2023-05-18T11:58:17;6.82;;;2.58;;
73474;SDS011;61711;52.266;10.542;2023-05-18T12:00:44;6.80;;;2.60;;
73474;SDS011;61711;52.266;10.542;2023-05-18T12:03:11;9.57;;;2.92;;
73474;SDS011;61711;52.266;10.542;2023-05-18T12:05:38;6.40;;;2.35;;
73474;SDS011;61711;52.266;10.542;2023-05-18T12:08:06;6.85;;;2.10;;
73474;SDS011;61711;52.266;10.542;2023-05-18T12:10:32;8.52;;;2.40;;
73474;SDS011;61711;52.266;10.542;2023-05-18T12:13:01;5.97;;;2.08;;
73474;SDS011;61711;52.266;10.542;2023-05-18T12:15:27;6.28;;;2.45;;
73474;SDS011;61711;52.266;10.542;2023-05-18T12:17:53;7.70;;;2.70;;
73474;SDS011;61711;52.266;10.542;2023-05-18T12:20:20;6.88;;;3.95;;
73474;SDS011;61711;52.266;10.542;2023-05-18T12:22:47;4.82;;;2.40;;
73474;SDS011;61711;52.266;10.542;2023-05-18T12:25:18;8.05;;;2.40;;
73474;SDS011;61711;52.266;10.542;2023-05-18T12:27:44;7.57;;;2.63;;
73474;SDS011;61711;52.266;10.542;2023-05-18T12:30:17;7.78;;;2.25;;
73474;SDS011;61711;52.266;10.542;2023-05-18T12:32:47;5.18;;;2.17;;
73474;SDS011;61711;52.266;10.542;2023-05-18T12:35:13;5.80;;;2.58;;
73474;SDS011;61711;52.266;10.542;2023-05-18T12:37:43;7.25;;;2.03;;
73474;SDS011;61711;52.266;10.542;2023-05-18T12:40:13;5.85;;;2.10;;
73474;SDS011;61711;52.266;10.542;2023-05-18T12:42:39;7.28;;;2.08;;
73474;SDS011;61711;52.266;10.542;2023-05-18T12:45:05;5.35;;;2.13;;
73474;SDS011;61711;52.266;10.542;2023-05-18T12:47:32;8.13;;;2.25;;
73474;SDS011;61711;52.266;10.542;2023-05-18T12:50:01;7.60;;;2.42;;
73474;SDS011;61711;52.266;10.542;2023-05-18T12:52:27;7.10;;;2.30;;
73474;SDS011;61711;52.266;10.542;2023-05-18T12:54:54;7.28;;;2.28;;
73474;SDS011;61711;52.266;10.542;2023-05-18T12:57:23;5.10;;;2.38;;
73474;SDS011;61711;52.266;10.542;2023-05-18T12:59:50;4.47;;;2.30;;
73474;SDS011;61711;52.266;10.542;2023-05-18T13:02:27;4.93;;;2.05;;
73474;SDS011;61711;52.266;10.542;2023-05-18T13:05:03;6.28;;;2.38;;
73474;SDS011;61711;52.266;10.542;2023-05-18T13:07:29;5.95;;;2.17;;
73474;SDS011;61711;52.266;10.542;2023-05-18T13:10:11;4.57;;;2.30;;
73474;SDS011;61711;52.266;10.542;2023-05-18T13:12:41;9.93;;;2.65;;
73474;SDS011;61711;52.266;10.542;2023-05-18T13:15:09;8.13;;;2.60;;
73474;SDS011;61711;52.266;10.542;2023-05-18T13:17:35;4.80;;;2.28;;
73474;SDS011;61711;52.266;10.542;2023-05-18T13:20:02;6.18;;;2.17;;
73474;SDS011;61711;52.266;10.542;2023-05-18T13:22:29;8.07;;;2.50;;
73474;SDS011;61711;52.266;10.542;2023-05-18T13:24:55;5.68;;;2.15;;
73474;SDS011;61711;52.266;10.542;2023-05-18T13:27:21;8.18;;;2.13;;
73474;SDS011;61711;52.266;10.542;2023-05-18T13:29:47;10.63;;;2.45;;
73474;SDS011;61711;52.266;10.542;2023-05-18T13:32:13;4.40;;;2.10;;
73474;SDS011;61711;52.266;10.542;2023-05-18T13:34:40;6.18;;;2.75;;
73474;SDS011;61711;52.266;10.542;2023-05-18T13:37:07;4.95;;;2.40;;
73474;SDS011;61711;52.266;10.542;2023-05-18T13:39:32;7.82;;;2.45;;
73474;SDS011;61711;52.266;10.542;2023-05-18T13:41:58;5.68;;;2.28;;
73474;SDS011;61711;52.266;10.542;2023-05-18T13:44:26;4.85;;;2.03;;
73474;SDS011;61711;52.266;10.542;2023-05-18T13:46:52;8.80;;;2.20;;
73474;SDS011;61711;52.266;10.542;2023-05-18T13:49:18;9.80;;;2.30;;
73474;SDS011;61711;52.266;10.542;2023-05-18T13:51:45;5.40;;;2.00;;
73474;SDS011;61711;52.266;10.542;2023-05-18T13:54:12;5.28;;;2.05;;
73474;SDS011;61711;52.266;10.542;2023-05-18T13:56:38;7.95;;;2.17;;
73474;SDS011;61711;52.266;10.542;2023-05-18T13:59:04;5.15;;;2.10;;
73474;SDS011;61711;52.266;10.542;2023-05-18T14:01:30;6.05;;;2.25;;
73474;SDS011;61711;52.266;10.542;2023-05-18T14:03:56;7.95;;;2.50;;
73474;SDS011;61711;52.266;10.542;2023-05-18T14:06:22;5.32;;;2.40;;
73474;SDS011;61711;52.266;10.542;2023-05-18T14:08:48;5.50;;;2.28;;
73474;SDS011;61711;52.266;10.542;2023-05-18T14:11:14;6.20;;;2.58;;
73474;SDS011;61711;52.266;10.542;2023-05-18T14:13:40;6.78;;;2.30;;
73474;SDS011;61711;52.266;10.542;2023-05-18T14:16:06;8.65;;;2.33;;
73474;SDS011;61711;52.266;10.542;2023-05-18T14:18:32;6.13;;;2.25;;
73474;SDS011;61711;52.266;10.542;2023-05-18T14:20:58;5.63;;;2.40;;
73474;SDS011;61711;52.266;10.542;2023-05-18T14:23:26;7.05;;;2.45;;
73474;SDS011;61711;52.266;10.542;2023-05-18T14:25:52;5.90;;;2.03;;
73474;SDS011;61711;52.266;10.542;2023-05-18T14:28:18;5.30;;;2.30;;
73474;SDS011;61711;52.266;10.542;2023-05-18T14:30:44;6.90;;;2.00;;
73474;SDS011;61711;52.266;10.542;2023-05-18T14:33:10;3.17;;;1.90;;
73474;SDS011;61711;52.266;10.542;2023-05-18T14:35:36;7.88;;;3.08;;
73474;SDS011;61711;52.266;10.542;2023-05-18T14:38:04;4.55;;;2.13;;
73474;SDS011;61711;52.266;10.542;2023-05-18T14:40:30;3.97;;;1.98;;
73474;SDS011;61711;52.266;10.542;2023-05-18T14:42:56;6.55;;;2.20;;